createdAt,value
2019-05-13T00:03:09.969Z,57.30
2019-05-13T00:08:33.999Z,55.33
2019-05-13T00:13:59.576Z,53.25
2019-05-13T00:19:24.475Z,53.35
2019-05-13T00:24:49.193Z,54.06
2019-05-13T00:30:14.615Z,54.42
2019-05-13T00:35:39.362Z,53.29
2019-05-13T00:41:04.313Z,53.66
2019-05-13T00:46:29.189Z,54.13
2019-05-13T00:51:53.828Z,54.69
2019-05-13T00:57:17.656Z,54.66
2019-05-13T01:02:44.325Z,55.00
2019-05-13T01:08:09.749Z,55.41
2019-05-13T01:13:34.193Z,56.10
2019-05-13T01:18:58.173Z,56.39
2019-05-13T01:24:24.383Z,57.46
2019-05-13T01:29:48.985Z,57.88
2019-05-13T01:35:14.913Z,58.85
2019-05-13T01:40:38.780Z,59.29
2019-05-13T01:46:04.633Z,60.32
2019-05-13T01:51:30.165Z,60.63
2019-05-13T01:56:54.682Z,61.56
2019-05-13T02:02:19.458Z,62.01
2019-05-13T02:07:56.965Z,62.69
2019-05-13T02:13:09.685Z,63.16
2019-05-13T02:18:34.448Z,63.08
2019-05-13T02:23:59.178Z,64.09
2019-05-13T02:29:24.489Z,64.59
2019-05-13T02:34:48.534Z,64.76
2019-05-13T02:40:13.501Z,64.60
2019-05-13T02:45:37.727Z,65.64
2019-05-13T02:51:03.763Z,66.29
2019-05-13T02:56:27.414Z,66.64
2019-05-13T03:01:53.280Z,67.33
2019-05-13T03:07:16.554Z,67.86
2019-05-13T03:12:42.915Z,67.79
2019-05-13T03:18:08.494Z,68.54
2019-05-13T03:23:33.172Z,68.89
2019-05-13T03:28:58.548Z,69.66
2019-05-13T03:34:26.772Z,69.52
2019-05-13T03:39:52.152Z,70.10
2019-05-13T03:45:14.614Z,69.73
2019-05-13T03:50:38.992Z,70.27
2019-05-13T03:56:03.863Z,70.16
2019-05-13T04:01:32.590Z,69.72
2019-05-13T04:06:55.806Z,69.95
2019-05-13T04:12:22.612Z,68.80
2019-05-13T04:17:45.736Z,68.69
2019-05-13T04:23:12.824Z,66.42
2019-05-13T04:28:36.081Z,62.32
2019-05-13T04:34:02.291Z,59.45
2019-05-13T04:39:41.813Z,56.99
2019-05-13T04:44:53.410Z,55.32
2019-05-13T04:50:17.622Z,54.90
2019-05-13T04:55:43.384Z,52.93
2019-05-13T05:01:55.261Z,50.65
2019-05-13T05:07:45.027Z,49.41
2019-05-13T05:13:46.195Z,49.15
2019-05-13T05:19:42.697Z,48.98
2019-05-13T05:25:29.321Z,49.34
2019-05-13T05:31:25.103Z,49.34
2019-05-13T05:37:11.785Z,48.40
2019-05-13T05:42:37.537Z,50.26
2019-05-13T05:48:04.255Z,47.12
2019-05-13T05:53:31.908Z,46.76
2019-05-13T05:58:59.021Z,46.62
2019-05-13T06:04:26.145Z,45.85
2019-05-13T06:09:51.578Z,43.58
2019-05-13T06:15:15.741Z,43.13
2019-05-13T06:20:41.817Z,41.40
2019-05-13T06:26:06.458Z,41.83
2019-05-13T06:31:32.413Z,41.08
2019-05-13T06:36:56.500Z,40.59
2019-05-13T06:42:22.226Z,38.80
2019-05-13T06:47:46.843Z,38.74
2019-05-13T06:53:12.923Z,38.17
2019-05-13T06:58:36.874Z,40.74
2019-05-13T07:04:02.377Z,38.57
2019-05-13T07:09:26.443Z,36.43
2019-05-13T07:14:51.856Z,35.67
2019-05-13T07:20:16.758Z,34.85
2019-05-13T07:25:42.221Z,34.34
2019-05-13T07:31:06.235Z,33.67
2019-05-13T07:36:31.626Z,34.79
2019-05-13T07:41:56.327Z,35.73
2019-05-13T07:47:22.343Z,37.41
2019-05-13T07:52:47.537Z,35.14
2019-05-13T07:58:11.743Z,35.95
2019-05-13T08:03:36.574Z,34.45
2019-05-13T08:09:01.655Z,32.39
2019-05-13T08:14:28.022Z,31.70
2019-05-13T08:19:52.699Z,30.29
2019-05-13T08:25:17.223Z,32.71
2019-05-13T08:30:42.710Z,29.37
2019-05-13T08:36:06.738Z,28.61
2019-05-13T08:41:32.383Z,25.82
2019-05-13T08:46:58.684Z,26.72
2019-05-13T08:52:23.521Z,25.43
2019-05-13T08:57:47.093Z,23.64
2019-05-13T09:03:12.157Z,26.81
2019-05-13T09:08:36.439Z,24.15
2019-05-13T09:14:02.357Z,22.51
2019-05-13T09:19:26.361Z,20.41
2019-05-13T09:24:52.795Z,22.63
2019-05-13T09:30:16.237Z,24.01
2019-05-13T09:35:42.266Z,25.24
2019-05-13T09:41:06.696Z,29.46
2019-05-13T09:46:31.954Z,29.33
2019-05-13T09:51:55.973Z,27.49
2019-05-13T09:57:22.070Z,27.68
2019-05-13T10:02:46.188Z,28.08
2019-05-13T10:08:12.543Z,28.25
2019-05-13T10:13:36.586Z,28.64
2019-05-13T10:19:02.705Z,29.17
2019-05-13T10:24:27.210Z,29.04
2019-05-13T10:29:51.886Z,28.43
2019-05-13T10:35:16.618Z,27.11
2019-05-13T10:40:43.241Z,25.67
2019-05-13T10:46:07.877Z,28.09
2019-05-13T10:51:32.633Z,29.08
2019-05-13T10:56:59.799Z,29.51
2019-05-13T11:02:23.689Z,26.84
2019-05-13T11:07:47.765Z,27.92
2019-05-13T11:13:12.433Z,29.37
2019-05-13T11:18:36.320Z,29.22
2019-05-13T11:24:03.114Z,26.93
2019-05-13T11:29:26.016Z,27.50
2019-05-13T11:34:52.734Z,29.73
2019-05-13T11:40:16.791Z,30.04
2019-05-13T11:45:42.076Z,26.34
2019-05-13T11:51:06.714Z,26.32
2019-05-13T11:56:33.668Z,26.12
2019-05-13T12:01:58.147Z,23.60
2019-05-13T12:12:47.833Z,23.70
2019-05-13T12:18:12.798Z,21.58
2019-05-13T12:23:37.379Z,19.99
2019-05-13T12:29:02.847Z,19.60
2019-05-13T12:34:27.051Z,20.12
2019-05-13T12:39:52.991Z,18.52
2019-05-13T12:45:18.286Z,18.95
2019-05-13T12:50:43.384Z,21.16
2019-05-13T12:56:07.181Z,21.03
2019-05-13T13:01:32.382Z,21.83
2019-05-13T13:06:57.019Z,22.54
2019-05-13T13:12:33.237Z,22.62
2019-05-13T13:17:46.587Z,20.54
2019-05-13T13:23:12.920Z,19.10
2019-05-13T13:28:35.877Z,20.82
2019-05-13T13:34:08.114Z,22.44
2019-05-13T13:39:26.194Z,23.20
2019-05-13T13:44:53.824Z,22.38
2019-05-13T13:50:16.537Z,20.31
2019-05-13T13:55:44.342Z,19.78
2019-05-13T14:07:02.937Z,21.43
2019-05-13T14:07:08.798Z,21.98
2019-05-13T14:11:56.985Z,25.08
2019-05-13T14:17:22.058Z,28.22
2019-05-13T14:22:46.341Z,29.60
2019-05-13T14:28:10.815Z,30.43
2019-05-13T14:33:35.544Z,30.72
2019-05-13T14:39:02.807Z,30.29
2019-05-13T14:44:27.775Z,26.38
2019-05-13T14:49:52.273Z,25.96
2019-05-13T14:55:16.437Z,26.38
2019-05-13T15:00:42.170Z,29.08
2019-05-13T15:06:06.281Z,30.34
2019-05-13T15:11:32.197Z,31.07
2019-05-13T15:17:03.134Z,28.97
2019-05-13T15:22:22.868Z,27.50
2019-05-13T15:27:47.428Z,27.10
2019-05-13T15:33:11.967Z,28.45
2019-05-13T15:38:35.969Z,29.52
2019-05-13T15:44:03.428Z,29.98
2019-05-13T15:49:27.080Z,29.04
2019-05-13T15:54:52.215Z,29.02
2019-05-13T16:00:16.909Z,27.90
2019-05-13T16:05:42.332Z,27.80
2019-05-13T16:11:07.193Z,28.26
2019-05-13T16:16:32.490Z,28.57
2019-05-13T16:21:57.397Z,26.55
2019-05-13T16:27:22.355Z,25.92
2019-05-13T16:32:48.320Z,25.30
2019-05-13T16:38:12.957Z,29.72
2019-05-13T16:43:37.570Z,31.41
2019-05-13T16:49:02.258Z,33.38
2019-05-13T16:54:26.732Z,34.98
2019-05-13T16:59:51.837Z,37.08
2019-05-13T17:05:17.267Z,38.17
2019-05-13T17:10:42.053Z,36.77
2019-05-13T17:16:06.980Z,36.60
2019-05-13T17:21:31.676Z,35.60
2019-05-13T17:26:56.226Z,35.71
2019-05-13T17:32:22.232Z,35.91
2019-05-13T17:37:47.437Z,36.03
2019-05-13T17:43:12.246Z,36.23
2019-05-13T17:48:36.033Z,35.73
2019-05-13T17:54:01.383Z,36.21
2019-05-13T17:59:25.817Z,36.65
2019-05-13T18:04:52.089Z,37.02
2019-05-13T18:10:16.160Z,37.37
2019-05-13T18:15:41.113Z,37.14
2019-05-13T18:21:05.582Z,38.92
2019-05-13T18:26:31.869Z,38.97
2019-05-13T18:31:56.444Z,40.10
2019-05-13T18:37:22.091Z,41.13
2019-05-13T18:42:46.057Z,41.13
2019-05-13T18:48:12.304Z,42.03
2019-05-13T18:53:38.322Z,43.44
2019-05-13T18:59:02.645Z,44.51
2019-05-13T19:04:27.423Z,44.41
2019-05-13T19:09:52.294Z,45.48
2019-05-13T19:15:16.777Z,46.22
2019-05-13T19:20:41.913Z,47.18
2019-05-13T19:26:06.209Z,47.83
2019-05-13T19:31:32.434Z,48.07
2019-05-13T19:36:57.181Z,48.56
2019-05-13T19:42:22.304Z,49.74
2019-05-13T19:47:46.688Z,50.89
2019-05-13T19:53:12.080Z,51.52
2019-05-13T19:58:36.744Z,51.88
2019-05-13T20:04:02.423Z,54.68
2019-05-13T20:09:28.061Z,55.54
2019-05-13T20:14:52.847Z,57.34
2019-05-13T20:20:17.859Z,58.15
2019-05-13T20:25:41.850Z,60.60
2019-05-13T20:31:06.077Z,58.99
2019-05-13T20:36:31.542Z,56.88
2019-05-13T20:41:55.994Z,56.75
2019-05-13T20:47:21.338Z,56.68
2019-05-13T20:52:46.324Z,56.00
2019-05-13T20:58:12.730Z,56.54
2019-05-13T21:03:37.346Z,57.40
2019-05-13T21:09:01.945Z,58.86
2019-05-13T21:14:27.850Z,59.40
2019-05-13T21:19:59.872Z,60.16
2019-05-13T21:25:19.045Z,62.33
2019-05-13T21:30:44.167Z,62.50
2019-05-13T21:36:09.572Z,65.64
2019-05-13T21:41:34.178Z,66.16
2019-05-13T21:46:57.971Z,67.60
2019-05-13T21:52:23.987Z,68.26
2019-05-13T21:57:47.264Z,70.58
2019-05-13T22:03:11.822Z,71.88
2019-05-13T22:08:36.648Z,71.39
2019-05-13T22:14:01.815Z,72.51
2019-05-13T22:19:25.937Z,72.03
2019-05-13T22:24:51.193Z,70.81
2019-05-13T22:30:15.456Z,72.77
2019-05-13T22:35:41.620Z,71.74
2019-05-13T22:41:06.496Z,71.48
2019-05-13T22:46:32.251Z,72.62
2019-05-13T22:51:56.857Z,73.20
2019-05-13T22:57:21.945Z,70.95
2019-05-13T23:02:46.523Z,70.13
2019-05-13T23:08:11.418Z,69.60
2019-05-13T23:13:36.320Z,70.35
2019-05-13T23:19:00.946Z,71.95
2019-05-13T23:24:24.642Z,72.12
2019-05-13T23:29:48.536Z,70.35
2019-05-13T23:35:12.415Z,72.91
2019-05-13T23:40:36.421Z,73.17
2019-05-13T23:46:01.221Z,73.08
2019-05-13T23:51:25.500Z,72.92
2019-05-13T23:56:49.248Z,72.79
